Time;durP1;ratioP1;P1;durP2;ratioP2;P2;SDS_P1;SDS_P2;PMS_P1;PMS_P2;Temp;Humidity;BMP_temperature;BMP_pressure;BME280_temperature;BME280_humidity;BME280_pressure;Samples;Min_cycle;Max_cycle;Signal;HPM_P1;HPM_P2
2022/06/23 00:02:05;;;;;;;5.13;3.30;;;;;;;15.25;53.12;99099.88;5046393;28;20041;-61
2022/06/23 00:04:35;;;;;;;5.30;3.63;;;;;;;15.03;53.35;99078.00;5013785;28;20052;-62
2022/06/23 00:07:06;;;;;;;5.80;3.20;;;;;;;15.11;53.08;99086.09;5032298;28;20068;-61
2022/06/23 00:09:56;;;;;;;5.47;2.78;;;;;;;15.15;53.19;99102.75;5031838;28;20107;-59
2022/06/23 00:12:38;;;;;;;4.07;2.90;;;;;;;15.25;52.89;99095.31;5031516;28;20033;-60
2022/06/23 00:15:06;;;;;;;4.68;2.75;;;;;;;15.11;53.51;99085.25;5031244;28;20396;-68
2022/06/23 00:17:39;;;;;;;6.15;2.83;;;;;;;15.05;53.40;99097.53;5032128;28;20068;-61
2022/06/23 00:20:17;;;;;;;3.88;2.90;;;;;;;15.18;53.09;99092.47;5031415;28;20045;-61
2022/06/23 00:22:48;;;;;;;5.13;2.67;;;;;;;14.97;53.45;99084.09;5030447;28;20080;-61
2022/06/23 00:25:45;;;;;;;6.05;2.70;;;;;;;15.07;53.49;99103.59;5031733;28;20060;-63
2022/06/23 00:28:36;;;;;;;4.95;2.70;;;;;;;15.05;53.68;99102.94;5033081;28;20029;-61
2022/06/23 00:31:19;;;;;;;4.25;2.42;;;;;;;14.95;53.98;99103.13;5029094;28;20049;-61
2022/06/23 00:33:45;;;;;;;3.08;2.47;;;;;;;14.77;54.40;99085.28;5031328;28;20477;-62
2022/06/23 00:36:33;;;;;;;8.05;2.90;;;;;;;14.80;54.93;99100.25;5031123;28;20111;-61
2022/06/23 00:38:59;;;;;;;4.38;2.20;;;;;;;14.70;55.10;99100.41;5031577;28;20030;-61
2022/06/23 00:41:30;;;;;;;4.35;2.17;;;;;;;14.68;55.16;99110.50;5030585;28;20496;-62
2022/06/23 00:44:03;;;;;;;3.25;2.33;;;;;;;14.49;55.31;99074.84;5031024;28;20037;-61
2022/06/23 00:46:36;;;;;;;5.25;2.88;;;;;;;14.62;55.25;99113.88;5031393;28;20033;-61
2022/06/23 00:49:15;;;;;;;3.75;2.42;;;;;;;14.62;55.44;99114.72;5031158;28;20029;-62
2022/06/23 00:51:53;;;;;;;4.10;3.08;;;;;;;14.68;55.20;99120.44;5030419;28;20175;-64
2022/06/23 00:54:30;;;;;;;4.47;2.92;;;;;;;14.75;54.81;99118.78;5030683;28;20029;-61
2022/06/23 00:57:09;;;;;;;6.88;3.00;;;;;;;14.73;54.64;99110.03;5031305;28;20037;-62
2022/06/23 00:59:48;;;;;;;5.63;2.90;;;;;;;14.62;54.79;99098.56;5030670;28;20400;-61
2022/06/23 01:02:18;;;;;;;11.57;3.85;;;;;;;14.60;54.82;99088.97;5030252;28;20049;-62
2022/06/23 01:04:46;;;;;;;7.30;3.00;;;;;;;14.72;55.18;99120.00;5030752;28;20033;-62
2022/06/23 01:07:39;;;;;;;5.40;3.30;;;;;;;14.70;55.24;99124.66;5030384;28;20041;-61
2022/06/23 01:10:26;;;;;;;7.32;3.95;;;;;;;14.69;55.34;99130.22;5031169;28;20469;-61
2022/06/23 01:12:55;;;;;;;6.28;3.10;;;;;;;14.50;55.67;99122.31;5012257;28;20044;-62
2022/06/23 01:15:21;;;;;;;5.78;3.47;;;;;;;14.50;56.11;99125.00;5028837;28;20029;-62
2022/06/23 01:18:25;;;;;;;7.18;3.67;;;;;;;14.60;55.54;99127.53;5031289;28;20044;-62
2022/06/23 01:21:00;;;;;;;5.68;3.50;;;;;;;14.54;55.60;99121.97;5017803;28;20132;-61
2022/06/23 01:23:53;;;;;;;6.53;3.30;;;;;;;14.63;55.45;99131.72;5030605;28;20041;-60
2022/06/23 01:26:43;;;;;;;9.82;3.25;;;;;;;14.59;55.77;99139.31;5030874;28;20059;-61
2022/06/23 01:29:21;;;;;;;6.35;3.25;;;;;;;14.67;55.34;99145.72;5030535;28;20043;-66
2022/06/23 01:31:52;;;;;;;6.20;2.83;;;;;;;14.58;55.45;99150.25;5025729;28;20036;-62
2022/06/23 01:34:25;;;;;;;5.10;3.05;;;;;;;14.60;55.64;99148.22;5011125;28;20386;-63
2022/06/23 01:37:08;;;;;;;4.70;2.97;;;;;;;14.58;56.00;99144.84;5010903;28;20033;-62
2022/06/23 01:39:59;;;;;;;4.80;2.90;;;;;;;14.62;55.71;99152.44;5013927;28;20025;-61
2022/06/23 01:42:56;;;;;;;4.30;2.78;;;;;;;14.59;56.04;99157.31;5030111;28;20111;-61
2022/06/23 01:45:27;;;;;;;5.65;3.47;;;;;;;14.48;55.64;99135.09;5027236;28;20124;-63
2022/06/23 01:51:23;;;;;;;4.55;3.10;;;;;;;14.74;55.37;99155.69;4999105;28;20055;-62
2022/06/23 01:53:51;;;;;;;7.72;3.40;;;;;;;14.63;55.45;99153.28;5030280;28;20041;-63
2022/06/23 01:56:39;;;;;;;5.93;2.75;;;;;;;14.78;54.93;99167.81;5028831;28;20026;-61
2022/06/23 01:59:19;;;;;;;5.28;2.83;;;;;;;14.81;55.18;99169.31;5028164;28;20053;-63
2022/06/23 02:02:10;;;;;;;5.22;2.90;;;;;;;14.88;54.69;99166.78;5030374;28;20042;-62
2022/06/23 02:04:57;;;;;;;3.75;2.67;;;;;;;14.86;54.89;99166.13;5030333;28;20132;-61
2022/06/23 02:07:29;;;;;;;3.15;2.45;;;;;;;14.84;54.79;99171.69;5030332;28;20108;-61
2022/06/23 02:10:02;;;;;;;5.95;2.88;;;;;;;14.86;54.92;99174.22;5029851;28;20038;-62
2022/06/23 02:13:07;;;;;;;3.10;2.50;;;;;;;15.05;53.96;99176.56;5030052;28;20037;-62
2022/06/23 02:16:20;;;;;;;4.97;2.65;;;;;;;15.26;53.40;99179.75;5043339;28;20041;-61
2022/06/23 02:19:00;;;;;;;4.72;3.30;;;;;;;15.35;53.62;99184.97;5025497;28;20045;-63
2022/06/23 02:21:48;;;;;;;5.97;2.90;;;;;;;15.57;53.04;99190.66;5029469;28;20466;-62
2022/06/23 02:24:17;;;;;;;6.97;2.60;;;;;;;15.74;52.53;99201.44;5026627;28;20200;-62
2022/06/23 02:26:58;;;;;;;5.47;2.50;;;;;;;16.05;51.85;99201.53;5032606;28;20033;-63
2022/06/23 02:29:30;;;;;;;3.30;2.70;;;;;;;16.03;51.15;99168.44;5033240;28;20440;-60
2022/06/23 02:32:04;;;;;;;5.22;2.83;;;;;;;16.51;50.68;99205.31;5033852;28;20108;-60
2022/06/23 02:34:37;;;;;;;7.07;2.60;;;;;;;16.76;49.89;99211.44;5033928;28;20025;-61
2022/06/23 02:37:07;;;;;;;3.58;2.70;;;;;;;17.11;49.08;99207.47;5033402;28;20086;-61
2022/06/23 02:39:46;;;;;;;5.45;2.90;;;;;;;17.62;47.74;99207.72;5033162;28;20048;-61
2022/06/23 02:42:24;;;;;;;7.07;2.75;;;;;;;18.07;46.77;99210.44;5033099;28;20036;-62
2022/06/23 02:45:07;;;;;;;4.35;3.00;;;;;;;18.33;45.88;99213.69;5032979;28;20465;-62
2022/06/23 02:47:41;;;;;;;5.63;3.10;;;;;;;18.53;45.36;99218.47;5032484;28;20033;-61
2022/06/23 02:50:27;;;;;;;5.90;3.25;;;;;;;18.61;44.78;99215.69;5033257;28;20029;-62
2022/06/23 02:53:08;;;;;;;7.53;2.83;;;;;;;18.45;44.74;99216.75;5033642;28;20454;-60
2022/06/23 02:56:00;;;;;;;6.60;3.00;;;;;;;18.51;44.96;99219.50;5033043;28;20059;-61
2022/06/23 02:58:48;;;;;;;4.82;2.50;;;;;;;18.61;44.16;99221.94;5032560;28;20045;-60
2022/06/23 03:01:36;;;;;;;7.30;3.17;;;;;;;19.02;43.42;99214.25;5033164;28;20131;-68
2022/06/23 03:04:29;;;;;;;5.25;2.60;;;;;;;19.37;42.66;99225.19;5033187;28;20043;-62
2022/06/23 03:07:01;;;;;;;4.25;2.60;;;;;;;19.70;41.72;99218.31;5032520;28;20025;-62
2022/06/23 03:09:39;;;;;;;6.88;2.53;;;;;;;20.16;40.52;99223.22;5032723;28;20105;-60
2022/06/23 03:12:16;;;;;;;4.93;2.80;;;;;;;20.55;39.90;99225.50;5031551;28;20033;-61
2022/06/23 03:14:42;;;;;;;6.80;2.58;;;;;;;20.85;39.23;99227.91;5033060;28;20154;-61
2022/06/23 03:17:24;;;;;;;5.53;2.35;;;;;;;21.32;38.94;99220.63;5032259;28;20045;-63
2022/06/23 03:20:20;;;;;;;5.28;2.20;;;;;;;21.91;37.64;99234.41;5031456;28;20025;-60
2022/06/23 03:22:58;;;;;;;4.05;2.40;;;;;;;22.02;36.85;99224.75;5032977;28;20064;-61
2022/06/23 03:25:46;;;;;;;4.50;2.65;;;;;;;22.40;36.45;99234.03;5032443;28;20504;-63
2022/06/23 03:28:26;;;;;;;5.32;2.45;;;;;;;22.68;35.49;99234.81;5032505;28;20025;-63
2022/06/23 03:30:59;;;;;;;6.38;2.58;;;;;;;22.91;34.96;99226.91;5032706;28;20465;-62
2022/06/23 03:33:41;;;;;;;13.40;2.75;;;;;;;23.35;35.06;99245.31;5031235;28;20466;-61
2022/06/23 03:36:29;;;;;;;6.32;2.50;;;;;;;23.82;34.20;99239.44;5031759;28;20030;-62
2022/06/23 03:42:10;;;;;;;3.30;2.42;;;;;;;24.55;32.94;99247.91;5031421;28;20091;-61
2022/06/23 03:44:52;;;;;;;3.63;2.20;;;;;;;24.92;32.29;99244.28;5032067;28;20025;-62
2022/06/23 03:47:29;;;;;;;3.58;2.20;;;;;;;25.26;30.87;99252.81;5030410;28;20084;-63
2022/06/23 03:49:57;;;;;;;4.82;2.30;;;;;;;25.43;30.59;99254.88;5031730;28;20040;-64
2022/06/23 03:52:31;;;;;;;2.72;2.28;;;;;;;26.02;29.90;99267.78;5031823;28;20037;-61
2022/06/23 03:55:08;;;;;;;6.18;2.40;;;;;;;26.82;29.30;99257.13;5031836;28;20033;-61
2022/06/23 03:57:44;;;;;;;2.67;2.38;;;;;;;27.36;27.38;99258.66;5031503;28;20470;-60
2022/06/23 04:00:19;;;;;;;3.08;1.90;;;;;;;27.99;26.95;99266.81;5012541;28;20042;-61
2022/06/23 04:02:48;;;;;;;5.65;2.08;;;;;;;28.49;26.11;99264.22;5012870;28;20046;-61
2022/06/23 04:05:59;;;;;;;3.75;1.90;;;;;;;29.11;25.30;99269.59;5013022;28;20030;-61
2022/06/23 04:08:33;;;;;;;3.35;2.20;;;;;;;29.37;24.65;99268.72;5023846;28;20044;-61
2022/06/23 04:11:43;;;;;;;3.63;2.50;;;;;;;29.46;24.71;99273.81;5031510;28;20045;-61
2022/06/23 04:13:54;;;;;;;3.05;2.00;;;;;;;30.04;24.17;99284.19;5031627;28;20125;-61
2022/06/23 04:16:23;;;;;;;3.67;2.08;;;;;;;30.71;22.92;99286.44;5031721;28;20068;-60
2022/06/23 04:18:50;;;;;;;7.57;2.30;;;;;;;31.35;21.62;99288.00;5031494;28;20025;-64
2022/06/23 04:21:23;;;;;;;3.85;1.90;;;;;;;31.70;21.56;99268.06;5031875;28;20171;-61
2022/06/23 04:23:54;;;;;;;4.03;1.90;;;;;;;32.40;20.28;99291.50;5030760;28;20061;-65
2022/06/23 04:26:42;;;;;;;3.88;1.67;;;;;;;33.33;19.89;99277.13;5031848;28;20037;-61
2022/06/23 04:29:10;;;;;;;2.35;1.48;;;;;;;33.77;18.76;99287.34;5031215;28;20038;-63
2022/06/23 04:31:51;;;;;;;3.33;1.95;;;;;;;34.69;18.81;99288.59;5030146;28;20041;-62
2022/06/23 04:34:25;;;;;;;4.32;2.00;;;;;;;34.82;18.06;99275.91;5031495;28;20033;-62
2022/06/23 04:36:51;;;;;;;3.28;1.60;;;;;;;35.13;17.24;99281.03;5031440;28;20078;-62
2022/06/23 04:39:39;;;;;;;2.33;1.42;;;;;;;35.78;16.90;99288.63;5031643;28;20138;-61
2022/06/23 04:42:13;;;;;;;3.13;1.65;;;;;;;35.52;16.77;99282.69;5031208;28;20055;-63
2022/06/23 04:44:45;;;;;;;1.83;1.42;;;;;;;35.89;16.98;99292.03;5031231;28;20074;-62
2022/06/23 04:47:18;;;;;;;2.65;1.70;;;;;;;36.45;16.40;99294.06;5030746;28;20036;-62
2022/06/23 04:49:57;;;;;;;4.20;1.80;;;;;;;37.01;15.40;99305.19;5031058;28;20441;-61
2022/06/23 04:52:32;;;;;;;2.95;1.80;;;;;;;37.37;15.69;99303.50;5031006;28;20052;-62
2022/06/23 04:55:06;;;;;;;2.85;1.60;;;;;;;38.17;15.04;99297.28;5030740;28;20086;-63
2022/06/23 04:58:03;;;;;;;3.15;1.90;;;;;;;38.87;14.93;99313.50;5031233;28;20041;-63
2022/06/23 05:00:38;;;;;;;2.28;1.58;;;;;;;39.00;13.88;99297.72;5029045;28;20061;-61
2022/06/23 05:03:16;;;;;;;3.38;1.70;;;;;;;39.16;14.07;99296.06;5030823;28;20037;-61
2022/06/23 05:05:42;;;;;;;2.00;1.65;;;;;;;39.72;13.02;99297.34;5030501;28;20037;-60
2022/06/23 05:08:24;;;;;;;1.77;1.67;;;;;;;40.23;13.35;99302.31;5031245;28;20473;-61
2022/06/23 05:11:06;;;;;;;3.47;1.77;;;;;;;39.98;13.59;99310.47;5030989;28;20516;-63
2022/06/23 05:13:54;;;;;;;8.18;1.50;;;;;;;40.48;13.54;99301.38;5030615;28;20040;-62
2022/06/23 05:16:30;;;;;;;3.33;1.90;;;;;;;40.64;12.23;99297.19;5031283;28;20022;-61
2022/06/23 05:19:05;;;;;;;3.05;1.50;;;;;;;41.29;11.73;99297.72;5031067;28;20092;-63
2022/06/23 05:21:44;;;;;;;6.30;1.60;;;;;;;41.36;11.67;99291.56;5030357;28;20047;-63
2022/06/23 05:24:16;;;;;;;4.70;1.30;;;;;;;41.78;11.09;99307.50;5030418;28;20124;-61
2022/06/23 05:26:52;;;;;;;2.45;1.35;;;;;;;42.21;11.13;99305.38;5031011;28;20890;-61
2022/06/23 05:29:27;;;;;;;3.22;1.48;;;;;;;42.15;10.75;99309.59;5013482;28;20450;-64
2022/06/23 05:31:58;;;;;;;;;;;;;;;43.91;10.78;99304.00;5030908;28;20496;-64
2022/06/23 05:34:28;;;;;;;4.05;1.92;;;;;;;42.82;10.13;99314.97;5030037;28;19921;-61
2022/06/23 05:37:01;;;;;;;2.35;1.58;;;;;;;42.23;10.54;99308.66;5029804;28;20481;-63
2022/06/23 05:39:36;;;;;;;2.65;1.70;;;;;;;42.30;10.97;99305.25;5030446;28;20095;-62
2022/06/23 05:42:13;;;;;;;4.00;1.77;;;;;;;42.37;10.28;99299.84;5030026;28;20043;-63
2022/06/23 05:44:48;;;;;;;3.40;1.33;;;;;;;43.18;9.82;99323.72;5030285;28;20087;-63
2022/06/23 05:47:16;;;;;;;;;;;;;;;44.89;9.17;99320.50;5025356;28;20037;-62
2022/06/23 05:49:48;;;;;;;2.78;1.40;;;;;;;44.78;9.12;99322.25;5010524;28;19920;-62
2022/06/23 05:52:20;;;;;;;2.53;1.38;;;;;;;44.00;8.52;99317.94;5011052;28;20026;-61
2022/06/23 05:54:54;;;;;;;4.13;1.60;;;;;;;43.95;9.04;99327.47;5016495;28;20022;-63
2022/06/23 05:57:41;;;;;;;8.95;1.30;;;;;;;45.07;9.17;99331.38;5028892;28;20038;-62
2022/06/23 06:00:07;;;;;;;3.00;1.30;;;;;;;44.64;8.23;99317.09;5028343;28;20390;-62
2022/06/23 06:02:41;;;;;;;2.30;1.25;;;;;;;45.46;8.22;99322.94;5034323;28;20485;-63
2022/06/23 06:05:20;;;;;;;2.22;1.30;;;;;;;46.09;7.79;99325.72;5033525;28;20443;-61
2022/06/23 06:07:46;;;;;;;2.97;1.40;;;;;;;45.91;7.53;99314.09;5034076;28;20103;-63
2022/06/23 06:10:18;;;;;;;4.05;1.10;;;;;;;46.20;6.87;99320.28;5033300;28;20466;-63
2022/06/23 06:12:44;;;;;;;2.15;1.27;;;;;;;46.08;7.30;99319.25;5033882;28;20029;-63
2022/06/23 06:15:25;;;;;;;1.20;1.20;;;;;;;47.13;7.17;99331.41;5049341;28;20061;-63
2022/06/23 06:17:53;;;;;;;2.13;1.40;;;;;;;47.17;6.92;99315.25;5033276;28;20082;-65
2022/06/23 06:20:22;;;;;;;9.40;1.75;;;;;;;47.81;6.49;99328.56;5033354;28;20351;-62
2022/06/23 06:23:06;;;;;;;4.50;1.25;;;;;;;47.91;6.55;99334.72;5033633;28;20037;-63
2022/06/23 06:25:37;;;;;;;3.33;1.30;;;;;;;47.40;6.53;99320.81;5033774;28;20431;-63
2022/06/23 06:28:17;;;;;;;3.38;1.40;;;;;;;48.42;6.54;99331.16;5033304;28;20037;-63
2022/06/23 06:31:07;;;;;;;2.08;1.30;;;;;;;48.43;6.30;99327.09;5033457;28;20025;-63
2022/06/23 06:33:58;;;;;;;2.22;1.20;;;;;;;49.40;6.40;99319.50;5033403;28;20037;-63
2022/06/23 06:36:28;;;;;;;2.47;1.40;;;;;;;49.09;5.69;99322.63;5015322;28;20052;-63
2022/06/23 06:39:17;;;;;;;1.40;1.10;;;;;;;49.47;5.62;99316.69;5033511;28;20106;-64
2022/06/23 06:41:46;;;;;;;4.32;1.48;;;;;;;50.28;4.95;99324.16;5012499;28;20080;-63
2022/06/23 06:44:15;;;;;;;3.13;1.75;;;;;;;50.55;4.58;99318.00;5014837;28;20409;-63
2022/06/23 06:46:42;;;;;;;1.77;1.48;;;;;;;50.33;4.92;99312.34;5048543;28;20055;-64
2022/06/23 06:49:15;;;;;;;1.50;1.40;;;;;;;50.27;5.24;99319.69;5033295;28;20036;-62
2022/06/23 06:51:41;;;;;;;1.48;1.33;;;;;;;50.18;5.08;99307.88;5033457;28;20021;-63
2022/06/23 06:54:16;;;;;;;1.90;1.40;;;;;;;50.31;5.03;99317.63;5033252;28;20033;-63
2022/06/23 06:56:54;;;;;;;2.75;1.30;;;;;;;50.37;4.76;99313.13;5013714;28;20034;-63
2022/06/23 06:59:43;;;;;;;1.60;1.30;;;;;;;49.63;5.37;99321.22;5013048;28;20046;-63
2022/06/23 07:02:11;;;;;;;1.63;1.30;;;;;;;49.08;4.92;99320.19;5013297;28;20030;-68
2022/06/23 07:04:49;;;;;;;1.45;1.23;;;;;;;49.61;4.91;99312.28;5027938;28;20033;-67
2022/06/23 07:07:21;;;;;;;4.35;1.50;;;;;;;50.45;4.64;99318.84;5032076;28;20025;-67
2022/06/23 07:09:57;;;;;;;3.38;1.52;;;;;;;50.98;4.38;99317.94;5031439;28;20190;-62
2022/06/23 07:12:33;;;;;;;2.88;1.42;;;;;;;51.59;4.32;99326.59;5031583;28;20037;-64
2022/06/23 07:15:12;;;;;;;2.28;1.60;;;;;;;51.69;3.79;99308.63;5032097;28;20370;-65
2022/06/23 07:17:40;;;;;;;3.13;1.92;;;;;;;51.88;3.73;99320.72;5030128;28;20065;-63
2022/06/23 07:20:17;;;;;;;3.97;1.58;;;;;;;52.37;3.41;99337.88;5031748;28;20095;-65
2022/06/23 07:22:50;;;;;;;2.05;1.70;;;;;;;52.45;3.31;99324.34;5031628;28;20022;-68
2022/06/23 07:25:40;;;;;;;5.60;1.88;;;;;;;52.72;3.96;99332.22;5032184;28;20037;-67
2022/06/23 07:28:12;;;;;;;2.42;2.10;;;;;;;53.06;3.80;99326.53;5012517;28;20076;-65
2022/06/23 07:30:46;;;;;;;2.30;2.10;;;;;;;53.22;3.25;99316.53;5012634;28;20033;-64
2022/06/23 07:33:53;;;;;;;3.20;2.20;;;;;;;53.58;3.37;99326.69;5019050;28;20078;-64
2022/06/23 07:36:24;;;;;;;4.90;2.47;;;;;;;52.86;3.14;99323.50;5030495;28;20041;-64
2022/06/23 07:38:57;;;;;;;8.55;2.35;;;;;;;52.20;3.88;99319.66;5032448;28;20033;-63
2022/06/23 07:41:37;;;;;;;2.42;2.22;;;;;;;52.44;3.75;99339.84;5030887;28;20065;-64
2022/06/23 07:44:08;;;;;;;3.85;2.30;;;;;;;51.75;3.53;99344.03;5030291;28;20055;-64
2022/06/23 07:46:36;;;;;;;3.58;1.75;;;;;;;51.59;3.38;99335.97;5032287;28;20030;-65
2022/06/23 07:49:03;;;;;;;2.00;1.90;;;;;;;51.22;3.74;99328.81;5031470;28;20438;-64
2022/06/23 07:51:29;;;;;;;2.17;2.08;;;;;;;51.34;3.70;99316.97;5031995;28;20033;-67
2022/06/23 07:53:56;;;;;;;4.20;2.10;;;;;;;51.51;3.28;99340.09;5030752;28;20029;-64
2022/06/23 07:56:25;;;;;;;4.90;1.98;;;;;;;51.81;3.90;99327.28;5032057;28;20033;-65
2022/06/23 07:58:58;;;;;;;3.90;2.08;;;;;;;52.30;3.47;99335.06;5031915;28;20124;-65
2022/06/23 08:01:32;;;;;;;2.45;2.25;;;;;;;52.43;3.42;99335.38;5029586;28;20033;-65
2022/06/23 08:04:23;;;;;;;2.53;2.33;;;;;;;52.02;3.85;99346.31;5029779;28;20478;-64
2022/06/23 08:06:49;;;;;;;2.58;2.40;;;;;;;51.50;4.00;99342.13;5022209;28;20613;-63
2022/06/23 08:09:36;;;;;;;2.38;2.17;;;;;;;51.49;3.90;99346.22;5030916;28;20037;-65
2022/06/23 08:17:58;;;;;;;1.83;1.73;;;;;;;49.13;4.76;99331.16;5013713;28;20038;-63
2022/06/23 08:20:25;;;;;;;2.22;1.70;;;;;;;48.30;5.04;99325.78;5030896;28;20450;-65
2022/06/23 08:22:54;;;;;;;2.03;1.50;;;;;;;47.42;5.59;99331.75;5030146;28;20045;-63
2022/06/23 08:25:20;;;;;;;2.28;1.50;;;;;;;45.58;6.24;99333.28;5029540;28;20025;-66
2022/06/23 08:27:47;;;;;;;3.35;1.52;;;;;;;42.37;8.52;99332.81;5029717;28;20404;-64
2022/06/23 08:30:15;;;;;;;3.35;1.73;;;;;;;39.17;10.84;99338.88;5029578;28;20041;-64
2022/06/23 08:32:45;;;;;;;1.48;1.38;;;;;;;36.52;12.46;99341.09;5029107;28;20033;-69
2022/06/23 08:35:14;;;;;;;6.93;1.50;;;;;;;34.28;14.01;99356.59;5029688;28;20052;-63
2022/06/23 08:38:03;;;;;;;5.75;1.60;;;;;;;32.77;15.02;99359.53;5029376;28;20187;-64
2022/06/23 08:41:07;;;;;;;2.17;1.40;;;;;;;30.81;16.88;99358.34;5028729;28;20448;-64
2022/06/23 08:43:46;;;;;;;2.05;1.50;;;;;;;29.58;19.23;99348.91;5029502;28;20504;-66
2022/06/23 08:46:28;;;;;;;4.18;1.50;;;;;;;28.94;19.79;99355.97;5030604;28;20064;-65
2022/06/23 08:49:09;;;;;;;2.15;1.50;;;;;;;28.31;20.83;99357.00;5030621;28;20076;-63
2022/06/23 08:51:51;;;;;;;2.88;1.63;;;;;;;27.92;21.07;99360.53;5030304;28;20128;-61
2022/06/23 08:54:40;;;;;;;3.78;1.80;;;;;;;27.62;21.34;99353.44;5030355;28;20078;-64
2022/06/23 08:57:33;;;;;;;4.10;1.60;;;;;;;27.29;21.59;99333.03;5045931;28;20033;-64
2022/06/23 09:00:23;;;;;;;3.08;1.52;;;;;;;27.10;22.51;99353.56;5030703;28;20416;-64
2022/06/23 09:02:59;;;;;;;2.15;1.40;;;;;;;26.88;23.06;99351.47;5028312;28;20045;-64
2022/06/23 09:05:42;;;;;;;3.33;1.70;;;;;;;26.64;23.77;99351.50;5029758;28;20045;-64
2022/06/23 09:08:29;;;;;;;3.58;1.55;;;;;;;26.67;23.69;99356.50;5030838;28;20049;-64
2022/06/23 09:11:32;;;;;;;1.80;1.70;;;;;;;26.78;23.25;99357.56;5030376;28;20068;-63
2022/06/23 09:13:57;;;;;;;2.42;1.67;;;;;;;26.50;23.59;99351.75;5030367;28;20041;-64
2022/06/23 09:16:50;;;;;;;5.50;1.67;;;;;;;26.48;23.86;99364.06;5030224;28;20047;-64
2022/06/23 09:19:50;;;;;;;2.00;1.58;;;;;;;26.50;23.78;99370.97;5030248;28;20033;-65
2022/06/23 09:22:40;;;;;;;3.25;1.70;;;;;;;26.50;23.69;99375.63;5030279;28;20378;-65
2022/06/23 09:25:39;;;;;;;2.60;1.42;;;;;;;26.61;23.15;99379.44;5029750;28;20041;-62
2022/06/23 09:28:35;;;;;;;3.15;1.65;;;;;;;26.35;24.29;99365.16;5029183;28;20037;-61
2022/06/23 09:31:20;;;;;;;1.90;1.80;;;;;;;26.41;23.28;99368.84;5024186;28;20052;-67
2022/06/23 09:34:01;;;;;;;2.30;1.80;;;;;;;26.19;24.88;99366.72;5024698;28;20037;-62
2022/06/23 09:36:43;;;;;;;3.92;1.92;;;;;;;26.06;25.12;99379.53;5025279;28;20063;-72
2022/06/23 09:39:42;;;;;;;5.63;2.10;;;;;;;26.16;24.81;99384.47;5009987;28;20505;-66
2022/06/23 09:42:11;;;;;;;4.32;1.85;;;;;;;26.07;24.63;99385.88;5013315;28;20034;-64
2022/06/23 09:45:03;;;;;;;4.65;2.40;;;;;;;26.05;24.82;99388.03;5023823;28;20529;-65
2022/06/23 09:48:11;;;;;;;7.55;2.47;;;;;;;25.99;25.71;99384.31;5016327;28;20037;-68
2022/06/23 09:50:45;;;;;;;4.60;1.80;;;;;;;25.86;26.36;99382.63;4991610;28;20038;-66
2022/06/23 09:53:35;;;;;;;3.97;2.33;;;;;;;26.08;25.36;99390.28;5008676;28;20034;-68
2022/06/23 09:56:31;;;;;;;2.25;1.83;;;;;;;26.01;25.06;99398.63;5030709;28;20037;-66
2022/06/23 09:59:03;;;;;;;;;;;;;;;26.35;25.34;99396.16;5028555;28;20053;-66
2022/06/23 10:01:51;;;;;;;4.60;2.08;;;;;;;25.88;25.93;99391.47;5027398;28;19917;-64
2022/06/23 10:04:41;;;;;;;5.30;2.13;;;;;;;25.85;25.92;99380.97;5027454;28;20045;-63
2022/06/23 10:07:25;;;;;;;4.50;2.20;;;;;;;25.99;26.28;99383.47;5025506;28;20516;-64
2022/06/23 10:09:56;;;;;;;3.63;1.92;;;;;;;25.96;26.43;99383.94;5029237;28;20067;-62
2022/06/23 10:13:06;;;;;;;3.83;1.80;;;;;;;26.19;25.96;99394.97;5029170;28;20097;-63
2022/06/23 10:15:40;;;;;;;3.72;1.98;;;;;;;26.14;25.60;99392.09;4982635;28;20031;-64
2022/06/23 10:18:24;;;;;;;4.65;1.83;;;;;;;26.06;25.76;99378.72;4983354;28;20222;-64
2022/06/23 10:21:03;;;;;;;3.88;1.85;;;;;;;26.01;26.67;99375.84;5012557;28;20037;-62
2022/06/23 10:24:01;;;;;;;2.28;1.70;;;;;;;26.14;26.53;99380.25;5028855;28;20040;-63
2022/06/23 10:27:04;;;;;;;5.88;2.08;;;;;;;26.23;25.92;99389.84;5011000;28;20042;-63
2022/06/23 10:29:32;;;;;;;6.13;2.42;;;;;;;26.16;26.27;99389.97;5012478;28;20794;-60
2022/06/23 10:32:12;;;;;;;2.22;1.77;;;;;;;26.20;25.98;99390.34;5023486;28;20037;-61
2022/06/23 10:34:56;;;;;;;5.72;2.40;;;;;;;25.99;26.60;99392.53;5026444;28;20104;-61
2022/06/23 10:37:34;;;;;;;2.65;1.80;;;;;;;25.92;27.17;99395.38;5027929;28;20033;-64
2022/06/23 10:40:24;;;;;;;1.80;1.70;;;;;;;25.97;26.76;99385.63;5026939;28;20025;-61
2022/06/23 10:43:27;;;;;;;4.78;2.22;;;;;;;26.07;26.22;99386.69;5027779;28;20037;-60
2022/06/23 10:46:23;;;;;;;5.20;1.70;;;;;;;26.23;26.26;99392.59;5027889;28;20037;-62
2022/06/23 10:49:04;;;;;;;4.30;1.95;;;;;;;26.27;26.51;99377.31;5023230;28;20124;-62
2022/06/23 10:51:29;;;;;;;3.25;2.15;;;;;;;26.20;25.88;99382.91;5030946;28;20037;-61
2022/06/23 10:54:10;;;;;;;5.45;2.63;;;;;;;26.24;26.29;99394.25;5030943;28;20041;-61
2022/06/23 10:56:44;;;;;;;2.95;1.75;;;;;;;26.26;26.16;99396.75;5031603;28;20025;-61
2022/06/23 10:59:31;;;;;;;3.63;2.00;;;;;;;26.29;25.73;99391.63;5029788;28;20552;-61
2022/06/23 11:02:12;;;;;;;4.43;1.52;;;;;;;26.32;24.94;99398.56;5013191;28;20060;-62
2022/06/23 11:05:00;;;;;;;3.72;2.05;;;;;;;26.06;25.42;99387.78;5015382;28;20061;-62
2022/06/23 11:07:31;;;;;;;3.05;2.50;;;;;;;26.04;25.57;99389.06;5032008;28;20032;-61
2022/06/23 11:10:13;;;;;;;2.63;2.03;;;;;;;26.01;26.13;99389.53;5032572;28;20041;-60
2022/06/23 11:12:47;;;;;;;3.53;1.75;;;;;;;26.01;25.96;99386.81;5033059;28;20477;-65
2022/06/23 11:15:40;;;;;;;6.28;2.28;;;;;;;26.16;25.40;99392.72;5032916;28;20124;-62
2022/06/23 11:18:12;;;;;;;3.78;2.10;;;;;;;26.15;25.19;99399.22;5032614;28;20076;-63
2022/06/23 11:20:41;;;;;;;6.68;1.90;;;;;;;26.01;26.41;99395.88;5031382;28;20729;-62
2022/06/23 11:23:34;;;;;;;5.80;2.08;;;;;;;26.13;25.80;99387.66;5032177;28;20048;-60
2022/06/23 11:26:08;;;;;;;6.07;2.10;;;;;;;26.15;25.52;99403.88;5031489;28;20483;-61
2022/06/23 11:28:50;;;;;;;2.38;2.17;;;;;;;26.14;26.16;99403.06;5026378;28;20041;-57
2022/06/23 11:31:42;;;;;;;4.38;2.08;;;;;;;26.25;24.74;99403.31;5028991;28;20029;-59
2022/06/23 11:34:17;;;;;;;3.55;2.10;;;;;;;25.98;25.63;99401.00;5027920;28;20039;-60
2022/06/23 11:36:57;;;;;;;2.38;2.20;;;;;;;25.82;25.95;99400.63;5029609;28;20377;-60
2022/06/23 11:39:42;;;;;;;4.75;2.30;;;;;;;25.66;27.18;99391.16;5027181;28;20072;-62
2022/06/23 11:42:31;;;;;;;4.25;2.33;;;;;;;25.84;25.63;99394.91;5027504;28;20079;-61
2022/06/23 11:45:28;;;;;;;6.15;2.47;;;;;;;25.83;25.61;99396.81;5030070;28;20087;-59
2022/06/23 11:48:00;;;;;;;6.32;2.28;;;;;;;25.68;26.79;99391.75;5025491;28;20038;-60
2022/06/23 11:50:28;;;;;;;2.65;1.80;;;;;;;25.57;26.77;99392.56;5030857;28;20091;-61
2022/06/23 11:53:12;;;;;;;5.78;2.50;;;;;;;25.64;26.74;99398.78;5024831;28;20431;-61
2022/06/23 11:55:49;;;;;;;5.65;2.70;;;;;;;25.70;26.33;99399.75;5025961;28;20501;-60
2022/06/23 11:58:44;;;;;;;5.00;2.13;;;;;;;25.69;26.42;99389.84;5028686;28;20052;-62
2022/06/23 12:01:15;;;;;;;3.58;2.10;;;;;;;25.67;26.28;99401.03;5031526;28;20084;-61
2022/06/23 12:03:40;;;;;;;4.78;2.47;;;;;;;25.56;26.53;99393.63;5031818;28;20051;-61
2022/06/23 12:06:12;;;;;;;6.13;2.20;;;;;;;25.58;26.55;99400.56;5029719;28;20037;-61
2022/06/23 12:08:43;;;;;;;4.95;2.15;;;;;;;25.52;26.40;99396.00;5030892;28;20044;-61
2022/06/23 12:11:09;;;;;;;5.30;2.60;;;;;;;25.46;26.11;99403.22;5031929;28;20128;-61
2022/06/23 12:13:36;;;;;;;7.07;2.10;;;;;;;25.59;25.50;99406.88;5031929;28;20037;-62
2022/06/23 12:16:03;;;;;;;2.47;2.28;;;;;;;25.44;26.02;99396.31;5032096;28;20021;-61
2022/06/23 12:18:39;;;;;;;3.85;2.20;;;;;;;25.25;26.08;99395.53;5031344;28;20044;-61
2022/06/23 12:21:42;;;;;;;2.35;2.15;;;;;;;25.34;26.56;99396.84;5030183;28;20029;-61
2022/06/23 12:24:19;;;;;;;5.85;2.13;;;;;;;25.33;26.87;99392.44;5031154;28;20080;-60
2022/06/23 12:26:56;;;;;;;5.38;2.20;;;;;;;25.38;26.92;99392.59;5031756;28;20056;-61
2022/06/23 12:29:32;;;;;;;6.57;2.83;;;;;;;25.45;26.91;99389.75;5031510;28;20084;-61
2022/06/23 12:32:15;;;;;;;3.15;2.47;;;;;;;25.55;26.75;99401.00;5031498;28;20033;-60
2022/06/23 12:34:52;;;;;;;2.97;2.50;;;;;;;25.51;26.98;99402.53;5030243;28;20049;-62
2022/06/23 12:37:42;;;;;;;3.05;2.03;;;;;;;25.56;26.25;99402.72;5029572;28;20041;-63
2022/06/23 12:40:28;;;;;;;2.45;2.08;;;;;;;25.41;26.99;99399.50;5026869;28;20067;-62
2022/06/23 12:43:00;;;;;;;;;;;;;;;25.98;25.73;99403.75;5030283;28;20041;-63
2022/06/23 12:45:34;;;;;;;5.22;2.83;;;;;;;25.73;25.93;99396.53;5030216;28;19979;-63